createdAt,value
2016-12-16T00:00:31.538Z,95.69
2016-12-16T00:01:32.213Z,95.5
2016-12-16T00:02:32.879Z,94.84
2016-12-16T00:03:33.566Z,94.46
2016-12-16T00:04:34.222Z,94.74
2016-12-16T00:05:34.941Z,94.65
2016-12-16T00:06:35.607Z,94.56
2016-12-16T00:07:36.307Z,95.21
2016-12-16T00:08:36.979Z,94.65
2016-12-16T00:09:37.633Z,95.21
2016-12-16T00:10:38.272Z,94.84
2016-12-16T00:11:38.916Z,94.84
2016-12-16T00:12:39.677Z,94.84
2016-12-16T00:13:40.277Z,94.84
2016-12-16T00:14:40.931Z,94.93
2016-12-16T00:15:41.572Z,94.84
2016-12-16T00:16:42.194Z,94.74
2016-12-16T00:17:42.811Z,94.74
2016-12-16T00:18:43.435Z,95.21
2016-12-16T00:19:44.084Z,94.74
2016-12-16T00:20:44.741Z,94.84
2016-12-16T00:21:45.380Z,94.74
2016-12-16T00:22:46.010Z,94.74
2016-12-16T00:23:46.664Z,94.74
2016-12-16T00:24:47.345Z,94.74
2016-12-16T00:25:47.945Z,94.46
2016-12-16T00:26:48.907Z,94.27
2016-12-16T00:27:49.555Z,94.46
2016-12-16T00:28:50.230Z,94.08
2016-12-16T00:29:50.881Z,94.37
2016-12-16T00:30:51.512Z,93.99
2016-12-16T00:31:52.146Z,94.65
2016-12-16T00:32:52.845Z,94.65
2016-12-16T00:33:53.467Z,94.46
2016-12-16T00:34:54.088Z,94.46
2016-12-16T00:35:54.703Z,94.84
2016-12-16T00:36:55.325Z,94.46
2016-12-16T00:37:55.964Z,94.46
2016-12-16T00:38:56.630Z,94.27
2016-12-16T00:39:57.262Z,94.08
2016-12-16T00:40:57.919Z,94.08
2016-12-16T00:41:58.541Z,94.37
2016-12-16T00:42:59.164Z,94.65
2016-12-16T00:43:59.791Z,94.37
2016-12-16T00:45:00.404Z,94.74
2016-12-16T00:46:01.018Z,94.74
2016-12-16T00:47:01.637Z,94.46
2016-12-16T00:48:02.261Z,94.65
2016-12-16T00:49:02.898Z,94.23
2016-12-16T00:50:03.516Z,94.18
2016-12-16T00:51:04.192Z,94.08
2016-12-16T00:52:04.816Z,94.46
2016-12-16T00:53:05.444Z,94.08
2016-12-16T00:54:06.104Z,93.99
2016-12-16T00:55:06.712Z,94.27
2016-12-16T00:56:07.342Z,93.8
2016-12-16T00:57:08.019Z,93.7
2016-12-16T00:58:08.671Z,93.8
2016-12-16T00:59:09.301Z,93.7
2016-12-16T01:00:09.930Z,94.08
2016-12-16T01:01:10.539Z,93.13
2016-12-16T01:02:11.148Z,93.51
2016-12-16T01:03:11.803Z,93.13
2016-12-16T01:04:12.416Z,93.51
2016-12-16T01:05:13.044Z,93.32
2016-12-16T01:06:13.658Z,93.51
2016-12-16T01:07:14.276Z,93.89
2016-12-16T01:08:14.988Z,93.42
2016-12-16T01:09:15.616Z,93.13
2016-12-16T01:10:16.247Z,93.13
2016-12-16T01:11:16.923Z,93.89
2016-12-16T01:12:17.595Z,93.42
2016-12-16T01:13:18.217Z,93.32
2016-12-16T01:14:18.837Z,93.7
2016-12-16T01:15:19.501Z,93.13
2016-12-16T01:16:20.171Z,93.23
2016-12-16T01:17:20.792Z,92.66
2016-12-16T01:18:21.407Z,92.66
2016-12-16T01:19:22.043Z,93.13
2016-12-16T01:20:22.716Z,93.51
2016-12-16T01:21:23.349Z,93.23
2016-12-16T01:22:23.995Z,93.23
2016-12-16T01:23:24.622Z,93.61
2016-12-16T01:24:25.267Z,93.89
2016-12-16T01:25:25.927Z,93.32
2016-12-16T01:26:26.610Z,93.32
2016-12-16T01:27:27.262Z,93.89
2016-12-16T01:28:28.578Z,93.7
2016-12-16T01:29:29.249Z,93.32
2016-12-16T01:30:29.887Z,93.04
2016-12-16T01:31:30.516Z,93.32
2016-12-16T01:32:31.135Z,93.61
2016-12-16T01:33:31.755Z,93.04
2016-12-16T01:34:32.370Z,93.32
2016-12-16T01:35:32.986Z,93.32
2016-12-16T01:36:33.674Z,93.23
2016-12-16T01:37:34.282Z,93.42
2016-12-16T01:38:34.908Z,93.89
2016-12-16T01:39:35.545Z,93.89
2016-12-16T01:40:36.199Z,93.51
2016-12-16T01:41:36.822Z,93.8
2016-12-16T01:42:37.506Z,93.51
2016-12-16T01:43:38.159Z,93.32
2016-12-16T01:44:38.848Z,93.04
2016-12-16T01:45:39.510Z,93.89
2016-12-16T01:46:40.198Z,93.89
2016-12-16T01:47:40.848Z,93.89
2016-12-16T01:48:41.473Z,93.51
2016-12-16T01:49:42.090Z,93.89
2016-12-16T01:50:42.730Z,93.13
2016-12-16T01:51:43.442Z,93.23
2016-12-16T01:52:44.116Z,93.32
2016-12-16T01:53:44.787Z,93.32
2016-12-16T01:54:45.404Z,93.42
2016-12-16T01:55:46.167Z,93.42
2016-12-16T01:56:46.789Z,92.94
2016-12-16T01:57:47.431Z,92.94
2016-12-16T01:58:48.061Z,92.94
2016-12-16T01:59:48.763Z,92.94
2016-12-16T02:00:49.429Z,93.04
2016-12-16T02:01:50.058Z,93.42
2016-12-16T02:02:50.743Z,93.04
2016-12-16T02:03:51.405Z,93.51
2016-12-16T02:04:52.027Z,93.89
2016-12-16T02:05:52.705Z,93.42
2016-12-16T02:06:53.375Z,93.51
2016-12-16T02:07:53.994Z,93.61
2016-12-16T02:08:54.677Z,93.99
2016-12-16T02:09:55.331Z,93.61
2016-12-16T02:10:56.015Z,93.32
2016-12-16T02:11:56.688Z,93.13
2016-12-16T02:12:57.375Z,93.8
2016-12-16T02:13:58.031Z,93.7
2016-12-16T02:14:58.650Z,93.89
2016-12-16T02:15:59.293Z,93.8
2016-12-16T02:16:59.938Z,93.32
2016-12-16T02:18:00.575Z,93.99
2016-12-16T02:19:01.310Z,93.89
2016-12-16T02:20:02.028Z,93.8
2016-12-16T02:21:02.682Z,93.99
2016-12-16T02:22:03.311Z,94.18
2016-12-16T02:23:04.028Z,94.27
2016-12-16T02:24:04.744Z,93.8
2016-12-16T02:25:05.467Z,93.8
2016-12-16T02:26:06.109Z,93.89
2016-12-16T02:27:06.826Z,94.27
2016-12-16T02:28:07.598Z,94.18
2016-12-16T02:29:08.504Z,93.89
2016-12-16T02:30:09.187Z,93.8
2016-12-16T02:31:09.851Z,93.61
2016-12-16T02:32:10.531Z,94.27
2016-12-16T02:33:11.233Z,94.08
2016-12-16T02:34:11.858Z,94.08
2016-12-16T02:35:12.554Z,94.08
2016-12-16T02:36:13.199Z,93.8
2016-12-16T02:37:13.859Z,93.89
2016-12-16T02:38:14.594Z,93.89
2016-12-16T02:39:15.290Z,93.99
2016-12-16T02:40:16.023Z,93.8
2016-12-16T02:41:16.662Z,94.37
2016-12-16T02:42:17.382Z,94.27
2016-12-16T02:43:18.005Z,93.89
2016-12-16T02:44:18.673Z,94.65
2016-12-16T02:45:19.295Z,94.74
2016-12-16T02:46:19.957Z,94.65
2016-12-16T02:47:20.644Z,93.94
2016-12-16T02:48:21.307Z,94.32
2016-12-16T02:49:21.985Z,94.42
2016-12-16T02:50:22.620Z,94.13
2016-12-16T02:51:23.237Z,94.51
2016-12-16T02:52:23.885Z,94.51
2016-12-16T02:53:24.503Z,94.6
2016-12-16T02:54:25.130Z,94.51
2016-12-16T02:55:25.744Z,94.7
2016-12-16T02:56:26.361Z,94.7
2016-12-16T02:57:26.998Z,95.07
2016-12-16T02:58:27.647Z,95.26
2016-12-16T02:59:28.314Z,94.89
2016-12-16T03:00:28.957Z,95.17
2016-12-16T03:01:29.658Z,95.17
2016-12-16T03:02:30.377Z,94.51
2016-12-16T03:03:31.003Z,94.51
2016-12-16T03:04:31.683Z,95.17
2016-12-16T03:05:32.373Z,95.26
2016-12-16T03:06:33.011Z,95.55
2016-12-16T03:07:33.651Z,95.17
2016-12-16T03:08:34.310Z,95.45
2016-12-16T03:09:34.933Z,95.26
2016-12-16T03:10:35.554Z,95.26
2016-12-16T03:11:36.179Z,95.07
2016-12-16T03:12:36.846Z,95.45
2016-12-16T03:13:37.480Z,95.26
2016-12-16T03:14:38.130Z,95.93
2016-12-16T03:15:38.761Z,95.64
2016-12-16T03:16:39.415Z,95.93
2016-12-16T03:17:40.072Z,95.83
2016-12-16T03:18:40.716Z,96.02
2016-12-16T03:19:41.349Z,96.12
2016-12-16T03:20:41.984Z,96.21
2016-12-16T03:21:42.590Z,96.12
2016-12-16T03:22:43.224Z,96.12
2016-12-16T03:23:43.857Z,96.69
2016-12-16T03:24:44.505Z,96.69
2016-12-16T03:25:45.135Z,96.4
2016-12-16T03:26:45.792Z,96.5
2016-12-16T03:27:46.419Z,96.31
2016-12-16T03:28:47.031Z,96.78
2016-12-16T03:29:47.656Z,96.69
2016-12-16T03:30:48.311Z,96.78
2016-12-16T03:31:48.935Z,96.88
2016-12-16T03:32:49.577Z,96.78
2016-12-16T03:33:50.294Z,96.78
2016-12-16T03:34:50.927Z,96.88
2016-12-16T03:35:51.587Z,96.4
2016-12-16T03:36:52.208Z,96.88
2016-12-16T03:37:52.826Z,96.5
2016-12-16T03:38:53.436Z,96.4
2016-12-16T03:39:54.052Z,96.4
2016-12-16T03:40:54.683Z,96.69
2016-12-16T03:41:55.310Z,96.78
2016-12-16T03:42:55.931Z,96.4
2016-12-16T03:43:56.550Z,96.12
2016-12-16T03:44:57.175Z,96.69
2016-12-16T03:45:57.808Z,96.78
2016-12-16T03:46:58.467Z,96.69
2016-12-16T03:47:59.139Z,96.88
2016-12-16T03:48:59.794Z,96.4
2016-12-16T03:50:00.459Z,96.31
2016-12-16T03:51:01.098Z,96.4
2016-12-16T03:52:01.712Z,96.78
2016-12-16T03:53:02.345Z,96.78
2016-12-16T03:54:02.970Z,96.69
2016-12-16T03:55:03.589Z,96.59
2016-12-16T03:56:04.227Z,96.78
2016-12-16T03:57:04.847Z,96.88
2016-12-16T03:58:05.461Z,96.88
2016-12-16T03:59:06.090Z,96.88
2016-12-16T04:00:06.763Z,97.06
2016-12-16T04:01:07.413Z,96.88
2016-12-16T04:02:08.042Z,96.69
2016-12-16T04:03:08.685Z,97.16
2016-12-16T04:04:09.348Z,96.78
2016-12-16T04:05:10.006Z,96.78
2016-12-16T04:06:10.636Z,96.69
2016-12-16T04:07:11.343Z,96.69
2016-12-16T04:08:12.008Z,96.59
2016-12-16T04:09:12.646Z,96.78
2016-12-16T04:10:13.278Z,96.88
2016-12-16T04:11:13.905Z,96.97
2016-12-16T04:12:14.582Z,96.97
2016-12-16T04:13:15.238Z,96.88
2016-12-16T04:14:15.857Z,97.16
2016-12-16T04:15:16.486Z,97.25
2016-12-16T04:16:17.105Z,97.25
2016-12-16T04:17:17.777Z,97.06
2016-12-16T04:18:18.390Z,96.97
2016-12-16T04:19:19.076Z,96.97
2016-12-16T04:20:19.726Z,96.97
2016-12-16T04:21:20.349Z,96.97
2016-12-16T04:22:20.968Z,97.06
2016-12-16T04:23:21.591Z,97.16
2016-12-16T04:24:22.216Z,97.16
2016-12-16T04:25:22.821Z,97.06
2016-12-16T04:26:23.447Z,97.44
2016-12-16T04:27:24.074Z,97.06
2016-12-16T04:28:24.701Z,96.97
2016-12-16T04:29:25.323Z,97.06
2016-12-16T04:30:25.935Z,96.97
2016-12-16T04:31:26.568Z,97.16
2016-12-16T04:32:27.203Z,97.34
2016-12-16T04:33:27.859Z,97.72
2016-12-16T04:34:28.472Z,97.44
2016-12-16T04:35:29.166Z,98.01
2016-12-16T04:36:29.816Z,97.91
2016-12-16T04:37:30.451Z,98.01
2016-12-16T04:38:31.076Z,98.01
2016-12-16T04:39:31.683Z,97.82
2016-12-16T04:40:32.293Z,98.1
2016-12-16T04:41:32.921Z,97.44
2016-12-16T04:42:33.566Z,96.97
2016-12-16T04:43:34.226Z,97.72
2016-12-16T04:44:34.844Z,97.34
2016-12-16T04:45:35.553Z,97.44
2016-12-16T04:46:36.183Z,97.53
2016-12-16T04:47:36.809Z,97.53
2016-12-16T04:48:37.423Z,97.53
2016-12-16T04:49:38.036Z,97.53
2016-12-16T04:50:38.656Z,97.63
2016-12-16T04:51:39.277Z,97.06
2016-12-16T04:52:39.908Z,97.25
2016-12-16T04:53:40.529Z,97.16
2016-12-16T04:54:41.154Z,97.25
2016-12-16T04:55:41.764Z,97.16
2016-12-16T04:56:42.400Z,96.78
2016-12-16T04:57:43.070Z,96.97
2016-12-16T04:58:43.685Z,96.31
2016-12-16T04:59:44.364Z,97.16
2016-12-16T05:00:44.960Z,97.25
2016-12-16T05:01:45.591Z,96.59
2016-12-16T05:02:46.222Z,96.97
2016-12-16T05:03:46.846Z,96.4
2016-12-16T05:04:47.474Z,96.31
2016-12-16T05:05:48.156Z,96.78
2016-12-16T05:06:48.779Z,96.59
2016-12-16T05:07:49.435Z,96.59
2016-12-16T05:08:50.105Z,96.31
2016-12-16T05:09:50.731Z,96.59
2016-12-16T05:10:51.397Z,96.21
2016-12-16T05:11:52.020Z,96.69
2016-12-16T05:12:52.700Z,96.59
2016-12-16T05:13:53.321Z,96.31
2016-12-16T05:14:53.973Z,96.69
2016-12-16T05:15:54.597Z,96.4
2016-12-16T05:16:55.279Z,96.88
2016-12-16T05:17:55.935Z,97.16
2016-12-16T05:18:56.572Z,96.69
2016-12-16T05:19:57.207Z,96.78
2016-12-16T05:20:57.886Z,96.59
2016-12-16T05:21:58.545Z,96.59
2016-12-16T05:22:59.198Z,96.78
2016-12-16T05:23:59.818Z,96.4
2016-12-16T05:25:00.452Z,96.69
2016-12-16T05:26:01.082Z,96.5
2016-12-16T05:27:01.747Z,96.12
2016-12-16T05:28:02.365Z,96.12
2016-12-16T05:29:03.028Z,96.5
2016-12-16T05:30:03.649Z,96.5
2016-12-16T05:31:04.323Z,96.02
2016-12-16T05:32:04.986Z,96.12
2016-12-16T05:33:05.623Z,96.02
2016-12-16T05:34:06.261Z,95.93
2016-12-16T05:35:06.907Z,96.21
2016-12-16T05:36:07.534Z,96.59
2016-12-16T05:37:08.190Z,96.31
2016-12-16T05:38:08.817Z,96.59
2016-12-16T05:39:09.448Z,96.59
2016-12-16T05:40:10.071Z,96.69
2016-12-16T05:41:10.733Z,96.31
2016-12-16T05:42:11.391Z,96.12
2016-12-16T05:43:12.027Z,96.59
2016-12-16T05:44:12.669Z,96.12
2016-12-16T05:45:13.314Z,96.5
2016-12-16T05:46:13.938Z,96.31
2016-12-16T05:47:14.569Z,96.78
2016-12-16T05:48:15.204Z,96.31
2016-12-16T05:49:15.847Z,96.4
2016-12-16T05:50:16.552Z,96.78
2016-12-16T05:51:17.187Z,96.59
2016-12-16T05:52:17.834Z,96.5
2016-12-16T05:53:18.499Z,96.69
2016-12-16T05:54:19.147Z,96.78
2016-12-16T05:55:19.767Z,96.31
2016-12-16T05:56:20.423Z,95.74
2016-12-16T05:57:21.111Z,95.93
2016-12-16T05:58:21.736Z,95.83
2016-12-16T05:59:22.357Z,96.21
2016-12-16T06:00:22.988Z,96.12
2016-12-16T06:01:23.685Z,96.31
2016-12-16T06:02:24.323Z,96.21
2016-12-16T06:03:24.942Z,96.4
2016-12-16T06:04:25.589Z,96.5
2016-12-16T06:05:26.259Z,96.12
2016-12-16T06:06:26.907Z,96.12
2016-12-16T06:07:27.684Z,96.59
2016-12-16T06:08:28.418Z,96.59
2016-12-16T06:09:29.090Z,96.21
2016-12-16T06:10:29.918Z,96.02
2016-12-16T06:11:30.518Z,96.02
2016-12-16T06:12:31.159Z,95.07
2016-12-16T06:13:31.802Z,96.02
2016-12-16T06:14:32.444Z,95.55
2016-12-16T06:15:33.107Z,95.74
2016-12-16T06:16:33.757Z,95.74
2016-12-16T06:17:34.436Z,95.45
2016-12-16T06:18:35.100Z,95.83
2016-12-16T06:19:35.761Z,96.12
2016-12-16T06:20:36.431Z,95.93
2016-12-16T06:21:37.065Z,96.31
2016-12-16T06:22:37.690Z,96.12
2016-12-16T06:23:38.302Z,96.69
2016-12-16T06:24:39.032Z,96.59
2016-12-16T06:25:39.683Z,96.78
2016-12-16T06:26:40.360Z,96.88
2016-12-16T06:27:40.990Z,96.78
2016-12-16T06:28:41.615Z,96.69
2016-12-16T06:29:42.266Z,96.31
2016-12-16T06:30:42.898Z,96.02
2016-12-16T06:31:43.568Z,96.5
2016-12-16T06:32:44.213Z,96.12
2016-12-16T06:33:44.884Z,96.59
2016-12-16T06:34:45.550Z,96.4
2016-12-16T06:35:46.208Z,96.59
2016-12-16T06:36:46.868Z,96.5
2016-12-16T06:37:47.524Z,96.12
2016-12-16T06:38:48.187Z,96.12
2016-12-16T06:39:48.825Z,96.02
2016-12-16T06:40:49.514Z,95.74
2016-12-16T06:41:50.168Z,96.02
2016-12-16T06:42:50.861Z,95.26
2016-12-16T06:43:51.519Z,95.45
2016-12-16T06:44:52.127Z,95.26
2016-12-16T06:45:52.787Z,95.64
2016-12-16T06:46:53.427Z,95.93
2016-12-16T06:47:54.351Z,96.12
2016-12-16T06:48:55.036Z,95.55
2016-12-16T06:49:55.683Z,95.83
2016-12-16T06:50:56.347Z,95.26
2016-12-16T06:51:57.031Z,95.07
2016-12-16T06:52:57.686Z,95.17
2016-12-16T06:53:58.367Z,95.26
2016-12-16T06:54:59.001Z,95.93
2016-12-16T06:55:59.653Z,95.83
2016-12-16T06:57:00.324Z,95.83
2016-12-16T06:58:00.958Z,95.93
2016-12-16T06:59:01.629Z,96.02
2016-12-16T07:00:02.261Z,96.31
2016-12-16T07:01:02.911Z,95.83
2016-12-16T07:02:03.546Z,96.02
2016-12-16T07:03:04.198Z,95.93
2016-12-16T07:04:04.877Z,95.93
2016-12-16T07:05:05.504Z,95.55
2016-12-16T07:06:06.131Z,95.93
2016-12-16T07:07:06.846Z,96.02
2016-12-16T07:08:07.497Z,95.74
2016-12-16T07:09:08.164Z,95.45
2016-12-16T07:10:08.805Z,94.89
2016-12-16T07:11:09.439Z,95.45
2016-12-16T07:12:10.067Z,95.07
2016-12-16T07:13:10.719Z,95.36
2016-12-16T07:14:11.373Z,95.83
2016-12-16T07:15:12.049Z,96.02
2016-12-16T07:16:12.678Z,95.74
2016-12-16T07:17:13.329Z,95.93
2016-12-16T07:18:13.983Z,95.74
2016-12-16T07:19:14.642Z,95.74
2016-12-16T07:20:15.292Z,96.02
2016-12-16T07:21:15.946Z,96.02
2016-12-16T07:22:16.611Z,95.45
2016-12-16T07:23:17.284Z,96.02
2016-12-16T07:24:17.942Z,95.93
2016-12-16T07:25:18.769Z,95.83
2016-12-16T07:26:19.410Z,95.26
2016-12-16T07:27:20.021Z,95.55
2016-12-16T07:28:20.678Z,95.17
2016-12-16T07:29:21.328Z,95.74
2016-12-16T07:30:21.970Z,95.74
2016-12-16T07:31:22.586Z,95.74
2016-12-16T07:32:23.215Z,96.02
2016-12-16T07:33:23.853Z,95.74
2016-12-16T07:34:24.501Z,98.01
2016-12-16T07:35:25.121Z,95.83
2016-12-16T07:36:25.937Z,94.89
2016-12-16T07:37:26.614Z,94.89
2016-12-16T07:38:27.292Z,94.98
2016-12-16T07:39:27.911Z,95.07
2016-12-16T07:40:28.578Z,95.26
2016-12-16T07:41:29.218Z,95.26
2016-12-16T07:42:29.884Z,95.26
2016-12-16T07:43:30.552Z,95.17
2016-12-16T07:44:31.313Z,95.17
2016-12-16T07:45:31.924Z,95.17
2016-12-16T07:46:33.451Z,95.93
2016-12-16T07:47:34.656Z,95.26
2016-12-16T07:48:36.134Z,95.26
2016-12-16T07:49:37.099Z,95.17
2016-12-16T07:50:38.042Z,95.07
2016-12-16T07:51:39.257Z,95.55
2016-12-16T07:52:40.829Z,95.36
2016-12-16T07:53:41.749Z,95.36
2016-12-16T07:54:42.670Z,95.26
2016-12-16T07:55:43.674Z,94.79
2016-12-16T07:56:44.804Z,94.89
2016-12-16T07:57:45.809Z,95.17
2016-12-16T07:58:46.451Z,94.79
2016-12-16T07:59:47.197Z,95.17
2016-12-16T08:00:48.164Z,94.7
2016-12-16T08:01:48.829Z,95.36
2016-12-16T08:02:49.505Z,95.07
2016-12-16T08:03:50.148Z,95.45
2016-12-16T08:04:50.911Z,95.26
2016-12-16T08:05:51.798Z,95.07
2016-12-16T08:06:52.500Z,95.26
2016-12-16T08:07:53.149Z,95.07
2016-12-16T08:08:53.790Z,95.17
2016-12-16T08:09:54.503Z,95.26
2016-12-16T08:10:55.602Z,95.55
2016-12-16T08:11:56.720Z,95.36
2016-12-16T08:12:57.399Z,95.45
2016-12-16T08:13:58.478Z,94.89
2016-12-16T08:14:59.054Z,94.98
2016-12-16T08:15:59.914Z,95.26
2016-12-16T08:17:01.344Z,95.55
2016-12-16T08:18:03.984Z,95.17
2016-12-16T08:19:04.609Z,95.07
2016-12-16T08:20:05.384Z,95.07
2016-12-16T08:21:06.215Z,95.07
2016-12-16T08:22:07.067Z,95.83
2016-12-16T08:23:07.975Z,95.74
2016-12-16T08:24:08.637Z,95.93
2016-12-16T08:25:09.409Z,95.45
2016-12-16T08:26:10.076Z,95.45
2016-12-16T08:27:10.924Z,95.26
2016-12-16T08:28:11.601Z,94.79
2016-12-16T08:29:12.289Z,95.17
2016-12-16T08:30:13.147Z,94.79
2016-12-16T08:31:13.973Z,95.55
2016-12-16T08:32:15.842Z,95.36
2016-12-16T08:33:16.488Z,95.07
2016-12-16T08:34:17.406Z,95.26
2016-12-16T08:35:18.082Z,95.45
2016-12-16T08:36:18.707Z,95.74
2016-12-16T08:37:19.340Z,95.83
2016-12-16T08:38:19.975Z,95.36
2016-12-16T08:39:20.608Z,95.64
2016-12-16T08:40:21.284Z,95.74
2016-12-16T08:41:21.917Z,95.07
2016-12-16T08:42:22.563Z,95.64
2016-12-16T08:43:23.193Z,95.64
2016-12-16T08:44:23.941Z,95.45
2016-12-16T08:45:24.601Z,95.55
2016-12-16T08:46:25.225Z,95.36
2016-12-16T08:47:25.883Z,95.26
2016-12-16T08:48:26.556Z,95.26
2016-12-16T08:49:27.211Z,95.17
2016-12-16T08:50:27.837Z,95.07
2016-12-16T08:51:28.475Z,95.45
2016-12-16T08:52:29.085Z,95.07
2016-12-16T08:53:29.702Z,95.26
2016-12-16T08:54:30.326Z,95.36
2016-12-16T08:55:30.999Z,95.26
2016-12-16T08:56:31.679Z,95.36
2016-12-16T08:57:32.332Z,94.98
2016-12-16T08:58:35.553Z,95.17
2016-12-16T08:59:39.107Z,94.79
2016-12-16T09:00:41.482Z,95.36
2016-12-16T09:01:42.562Z,95.55
2016-12-16T09:02:43.309Z,95.93
2016-12-16T09:03:43.962Z,95.83
2016-12-16T09:04:44.607Z,95.26
2016-12-16T09:05:45.217Z,95.74
2016-12-16T09:06:45.861Z,95.93
2016-12-16T09:07:46.496Z,95.26
2016-12-16T09:08:47.120Z,95.17
2016-12-16T09:09:47.782Z,95.26
2016-12-16T09:10:48.440Z,95.36
2016-12-16T09:11:49.068Z,95.26
2016-12-16T09:12:49.701Z,95.93
2016-12-16T09:13:50.425Z,95.83
2016-12-16T09:14:51.106Z,95.55
2016-12-16T09:15:51.853Z,95.45
2016-12-16T09:16:52.485Z,95.55
2016-12-16T09:17:53.117Z,95.17
2016-12-16T09:18:53.736Z,95.07
2016-12-16T09:19:54.394Z,95.36
2016-12-16T09:20:55.030Z,95.36
2016-12-16T09:21:55.657Z,95.26
2016-12-16T09:22:56.303Z,95.26
2016-12-16T09:23:56.926Z,95.07
2016-12-16T09:24:57.555Z,95.26
2016-12-16T09:25:58.210Z,94.79
2016-12-16T09:26:58.861Z,95.26
2016-12-16T09:27:59.505Z,94.98
2016-12-16T09:29:00.144Z,95.07
2016-12-16T09:30:00.766Z,95.45
2016-12-16T09:31:01.438Z,95.55
2016-12-16T09:32:02.064Z,95.17
2016-12-16T09:33:02.745Z,95.36
2016-12-16T09:34:03.472Z,95.07
2016-12-16T09:35:04.140Z,95.07
2016-12-16T09:36:04.791Z,95.64
2016-12-16T09:37:05.437Z,95.93
2016-12-16T09:38:06.092Z,95.45
2016-12-16T09:39:06.749Z,95.45
2016-12-16T09:40:07.399Z,95.36
2016-12-16T09:41:08.095Z,95.07
2016-12-16T09:42:08.773Z,95.36
2016-12-16T09:43:09.461Z,95.93
2016-12-16T09:44:10.081Z,96.02
2016-12-16T09:45:10.730Z,94.98
2016-12-16T09:46:11.367Z,95.36
2016-12-16T09:47:12.066Z,95.64
2016-12-16T09:48:12.750Z,95.93
2016-12-16T09:49:13.577Z,95.83
2016-12-16T09:50:14.224Z,95.17
2016-12-16T09:51:14.916Z,94.98
2016-12-16T09:52:15.559Z,96.02
2016-12-16T09:53:16.196Z,96.02
2016-12-16T09:54:16.855Z,96.12
2016-12-16T09:55:17.567Z,95.74
2016-12-16T09:56:18.343Z,95.45
2016-12-16T09:57:19.029Z,95.26
2016-12-16T09:58:19.679Z,94.79
2016-12-16T09:59:20.304Z,94.79
2016-12-16T10:00:21.028Z,94.7
2016-12-16T10:01:21.697Z,94.7
2016-12-16T10:02:22.360Z,94.6
2016-12-16T10:03:22.999Z,94.79
2016-12-16T10:04:23.693Z,94.32
2016-12-16T10:05:24.361Z,95.07
2016-12-16T10:06:25.028Z,95.36
2016-12-16T10:07:25.668Z,95.36
2016-12-16T10:08:26.319Z,95.26
2016-12-16T10:09:26.995Z,95.55
2016-12-16T10:10:27.671Z,95.74
2016-12-16T10:11:28.359Z,95.17
2016-12-16T10:12:29.050Z,94.6
2016-12-16T10:13:29.808Z,94.51
2016-12-16T10:14:30.448Z,94.7
2016-12-16T10:15:31.147Z,94.7
2016-12-16T10:16:31.860Z,95.17
2016-12-16T10:17:32.475Z,94.6
2016-12-16T10:18:33.172Z,95.17
2016-12-16T10:19:33.965Z,94.79
2016-12-16T10:20:34.616Z,95.07
2016-12-16T10:21:35.282Z,95.45
2016-12-16T10:22:35.909Z,95.45
2016-12-16T10:23:36.546Z,94.89
2016-12-16T10:24:37.191Z,95.17
2016-12-16T10:25:37.805Z,95.26
2016-12-16T10:26:38.448Z,95.17
2016-12-16T10:27:40.599Z,95.07
2016-12-16T10:28:43.114Z,95.26
2016-12-16T10:29:45.689Z,95.45
2016-12-16T10:30:48.316Z,95.64
2016-12-16T10:31:50.821Z,96.02
2016-12-16T10:32:53.600Z,96.31
2016-12-16T10:33:55.426Z,95.93
2016-12-16T10:34:56.060Z,96.02
2016-12-16T10:35:56.708Z,96.02
2016-12-16T10:36:57.360Z,95.36
2016-12-16T10:37:57.987Z,95.26
2016-12-16T10:38:58.634Z,94.98
2016-12-16T10:39:59.261Z,95.36
2016-12-16T10:40:59.906Z,95.26
2016-12-16T10:42:00.644Z,95.36
2016-12-16T10:43:01.290Z,95.36
2016-12-16T10:44:01.935Z,95.07
2016-12-16T10:45:02.574Z,95.07
2016-12-16T10:46:03.276Z,95.55
2016-12-16T10:47:03.954Z,95.74
2016-12-16T10:48:04.605Z,95.74
2016-12-16T10:49:05.251Z,96.78
2016-12-16T10:50:05.886Z,96.5
2016-12-16T10:51:06.523Z,96.59
2016-12-16T10:52:07.181Z,96.5
2016-12-16T10:53:07.813Z,96.69
2016-12-16T10:54:08.438Z,96.59
2016-12-16T10:55:09.073Z,96.59
2016-12-16T10:56:09.693Z,96.69
2016-12-16T10:57:10.322Z,96.88
2016-12-16T10:58:10.964Z,96.69
2016-12-16T10:59:11.561Z,96.5
2016-12-16T11:00:12.261Z,96.59
2016-12-16T11:01:12.873Z,96.5
2016-12-16T11:02:13.500Z,96.31
2016-12-16T11:03:14.126Z,96.78
2016-12-16T11:04:14.763Z,96.97
2016-12-16T11:05:15.394Z,96.97
2016-12-16T11:06:16.038Z,96.69
2016-12-16T11:07:16.692Z,96.5
2016-12-16T11:08:17.338Z,96.78
2016-12-16T11:09:17.963Z,97.16
2016-12-16T11:10:18.604Z,96.97
2016-12-16T11:11:19.217Z,96.78
2016-12-16T11:12:19.853Z,96.59
2016-12-16T11:13:20.485Z,96.59
2016-12-16T11:14:21.096Z,96.31
2016-12-16T11:15:21.748Z,96.31
2016-12-16T11:16:22.382Z,96.59
2016-12-16T11:17:23.830Z,96.59
2016-12-16T11:18:24.697Z,95.83
2016-12-16T11:19:25.318Z,96.12
2016-12-16T11:20:25.969Z,95.93
2016-12-16T11:21:26.835Z,95.64
2016-12-16T11:22:27.503Z,96.02
2016-12-16T11:23:28.131Z,96.02
2016-12-16T11:24:28.767Z,96.12
2016-12-16T11:25:29.412Z,96.4
2016-12-16T11:26:30.042Z,96.59
2016-12-16T11:27:30.679Z,96.4
2016-12-16T11:28:31.301Z,95.83
2016-12-16T11:29:31.953Z,95.64
2016-12-16T11:30:32.639Z,95.83
2016-12-16T11:31:33.284Z,96.12
2016-12-16T11:32:34.512Z,95.74
